Time;durP1;ratioP1;P1;durP2;ratioP2;P2;SDS_P1;SDS_P2;PMS_P1;PMS_P2;Temp;Humidity;BMP_temperature;BMP_pressure;BME280_temperature;BME280_humidity;BME280_pressure;Samples;Min_cycle;Max_cycle;Signal;HPM_P1;HPM_P2
2021/07/22 00:02:19;;;;;;;22.10;13.00;;;16.80;99.90;;;;;;5009515;28;20264;-58
2021/07/22 00:04:44;;;;;;;30.13;12.00;;;16.80;99.90;;;;;;4992688;28;20169;-58
2021/07/22 00:07:13;;;;;;;18.90;12.50;;;16.80;99.90;;;;;;4996239;28;20434;-59
2021/07/22 00:09:39;;;;;;;21.70;11.93;;;16.70;99.90;;;;;;5011780;28;20209;-58
2021/07/22 00:12:11;;;;;;;21.63;11.90;;;16.70;99.90;;;;;;5011182;28;20789;-56
2021/07/22 00:14:37;;;;;;;22.00;12.57;;;16.70;99.90;;;;;;5000908;28;20447;-58
2021/07/22 00:17:03;;;;;;;20.73;12.27;;;16.60;99.90;;;;;;4996835;28;20599;-57
2021/07/22 00:19:30;;;;;;;18.57;12.17;;;16.60;99.90;;;;;;5006535;28;20204;-58
2021/07/22 00:21:56;;;;;;;23.83;13.17;;;16.50;99.90;;;;;;5010585;28;20673;-57
2021/07/22 00:24:26;;;;;;;24.17;11.90;;;16.50;99.90;;;;;;5009253;28;20423;-58
2021/07/22 00:26:55;;;;;;;24.70;13.30;;;16.50;99.90;;;;;;5006981;28;20485;-59
2021/07/22 00:29:21;;;;;;;18.30;10.93;;;16.40;99.90;;;;;;5010314;28;20574;-58
2021/07/22 00:31:47;;;;;;;17.77;11.40;;;16.40;99.90;;;;;;5012337;28;20982;-57
2021/07/22 00:34:14;;;;;;;19.57;11.13;;;16.40;99.90;;;;;;5010479;28;20431;-57
2021/07/22 00:36:43;;;;;;;21.53;12.20;;;16.30;99.90;;;;;;5003274;28;20327;-57
2021/07/22 00:39:15;;;;;;;19.50;12.53;;;16.30;99.90;;;;;;5010505;28;20428;-59
2021/07/22 00:41:44;;;;;;;17.73;11.63;;;16.30;99.90;;;;;;5008771;28;20432;-58
2021/07/22 00:44:15;;;;;;;18.10;11.70;;;16.20;99.90;;;;;;5010031;28;20435;-59
2021/07/22 00:46:40;;;;;;;24.50;12.27;;;16.20;99.90;;;;;;5012069;28;20471;-58
2021/07/22 00:49:12;;;;;;;20.20;12.30;;;16.20;99.90;;;;;;5011283;28;20454;-58
2021/07/22 00:51:47;;;;;;;21.37;13.07;;;16.20;99.90;;;;;;4993558;28;20185;-58
2021/07/22 00:54:13;;;;;;;19.47;12.27;;;16.20;99.90;;;;;;4993366;28;20929;-58
2021/07/22 00:56:39;;;;;;;20.40;12.27;;;16.10;99.90;;;;;;5000091;28;20443;-58
2021/07/22 00:59:04;;;;;;;19.50;12.10;;;16.10;99.90;;;;;;5010641;28;20180;-56
2021/07/22 01:01:33;;;;;;;18.87;11.70;;;16.10;99.90;;;;;;5005962;28;20205;-58
2021/07/22 01:04:02;;;;;;;19.93;12.20;;;16.00;99.90;;;;;;5004147;28;20668;-56
2021/07/22 01:06:27;;;;;;;21.93;11.73;;;16.00;99.90;;;;;;4998702;28;20566;-58
2021/07/22 01:09:02;;;;;;;18.47;11.37;;;16.00;99.90;;;;;;4991905;28;20512;-58
2021/07/22 01:11:28;;;;;;;18.13;12.00;;;16.00;99.90;;;;;;5004077;28;20657;-58
2021/07/22 01:13:53;;;;;;;21.80;12.10;;;16.00;99.90;;;;;;5003283;28;20430;-57
2021/07/22 01:16:19;;;;;;;18.33;11.90;;;15.90;99.90;;;;;;5001421;28;20176;-58
2021/07/22 01:18:44;;;;;;;18.60;12.33;;;15.90;99.90;;;;;;4998174;28;20196;-58
2021/07/22 01:21:10;;;;;;;22.30;11.73;;;15.90;99.90;;;;;;5009618;28;20202;-57
2021/07/22 01:23:36;;;;;;;18.13;11.93;;;15.90;99.90;;;;;;5010500;28;20195;-58
2021/07/22 01:26:02;;;;;;;20.03;11.87;;;15.80;99.90;;;;;;4995284;28;20463;-58
2021/07/22 01:28:28;;;;;;;22.80;12.30;;;15.80;99.90;;;;;;4999756;28;20199;-57
2021/07/22 01:30:54;;;;;;;15.67;10.63;;;15.70;99.90;;;;;;5005387;28;20467;-58
2021/07/22 01:33:20;;;;;;;19.73;12.60;;;15.70;99.90;;;;;;5001383;28;20265;-58
2021/07/22 01:35:45;;;;;;;21.90;11.90;;;15.70;99.90;;;;;;4999006;28;20177;-58
2021/07/22 01:38:11;;;;;;;20.00;11.70;;;15.70;99.90;;;;;;5007715;28;20230;-58
2021/07/22 01:40:36;;;;;;;24.00;11.60;;;15.60;99.90;;;;;;5003995;28;20189;-58
2021/07/22 01:43:06;;;;;;;17.33;11.73;;;15.50;99.90;;;;;;5001660;28;20180;-58
2021/07/22 01:45:32;;;;;;;20.57;12.50;;;15.50;99.90;;;;;;5010555;28;20215;-57
2021/07/22 01:47:58;;;;;;;19.67;11.87;;;15.50;99.90;;;;;;5010107;28;20425;-58
2021/07/22 01:50:24;;;;;;;20.77;11.83;;;15.40;99.90;;;;;;5007859;28;20459;-59
2021/07/22 01:52:50;;;;;;;16.93;10.80;;;15.40;99.90;;;;;;5008924;28;20466;-57
2021/07/22 01:55:16;;;;;;;18.63;11.53;;;15.40;99.90;;;;;;5017077;28;20192;-58
2021/07/22 01:57:41;;;;;;;19.10;11.80;;;15.40;99.90;;;;;;5010262;28;20192;-57
2021/07/22 02:00:10;;;;;;;16.47;11.43;;;15.40;99.90;;;;;;5009319;28;20192;-58
2021/07/22 02:02:36;;;;;;;18.53;11.60;;;15.40;99.90;;;;;;5001512;28;20645;-58
2021/07/22 02:05:02;;;;;;;16.53;11.50;;;15.30;99.90;;;;;;5010150;28;20453;-58
2021/07/22 02:07:27;;;;;;;24.30;12.27;;;15.30;99.90;;;;;;5008581;28;20955;-58
2021/07/22 02:09:55;;;;;;;18.50;11.50;;;15.30;99.90;;;;;;5005809;28;20467;-58
2021/07/22 02:12:24;;;;;;;20.67;12.23;;;15.30;99.90;;;;;;5008180;28;20192;-58
2021/07/22 02:14:52;;;;;;;19.40;12.43;;;15.20;99.90;;;;;;5010111;28;20407;-58
2021/07/22 02:17:19;;;;;;;15.90;11.00;;;15.20;99.90;;;;;;5009951;28;20943;-58
2021/07/22 02:19:45;;;;;;;20.67;11.53;;;15.20;99.90;;;;;;5008213;28;20466;-58
2021/07/22 02:22:13;;;;;;;23.03;11.90;;;15.10;99.90;;;;;;4997814;28;20710;-58
2021/07/22 02:24:38;;;;;;;24.83;12.40;;;15.10;99.90;;;;;;5000576;28;20426;-58
2021/07/22 02:27:14;;;;;;;18.10;11.73;;;15.10;99.90;;;;;;5001452;28;20427;-58
2021/07/22 02:29:40;;;;;;;18.13;12.13;;;15.10;99.90;;;;;;4994356;28;20215;-58
2021/07/22 02:32:11;;;;;;;20.30;11.80;;;15.00;99.90;;;;;;5005761;28;20943;-57
2021/07/22 02:34:37;;;;;;;22.67;11.93;;;15.00;99.90;;;;;;5008946;28;20176;-58
2021/07/22 02:37:02;;;;;;;22.60;11.80;;;15.00;99.90;;;;;;5008936;28;20919;-57
2021/07/22 02:39:38;;;;;;;19.00;12.93;;;15.00;99.90;;;;;;5009942;28;20200;-58
2021/07/22 02:42:04;;;;;;;18.10;12.30;;;15.00;99.90;;;;;;4999726;28;20174;-56
2021/07/22 02:44:30;;;;;;;20.67;12.20;;;15.00;99.90;;;;;;4998082;28;20427;-57
2021/07/22 02:46:58;;;;;;;18.43;10.87;;;14.90;99.90;;;;;;5007887;28;20430;-57
2021/07/22 02:49:24;;;;;;;20.67;12.13;;;14.90;99.90;;;;;;5009255;28;20975;-57
2021/07/22 02:51:53;;;;;;;18.10;11.43;;;14.90;99.90;;;;;;5009472;28;20438;-57
2021/07/22 02:54:19;;;;;;;18.63;11.23;;;14.80;99.90;;;;;;5007638;28;20656;-57
2021/07/22 02:56:45;;;;;;;20.60;11.43;;;14.80;99.90;;;;;;5008034;28;20455;-58
2021/07/22 02:59:13;;;;;;;20.93;11.10;;;14.80;99.90;;;;;;5007546;28;20204;-57
2021/07/22 03:01:40;;;;;;;18.23;11.60;;;14.80;99.90;;;;;;5003493;28;20180;-58
2021/07/22 03:04:05;;;;;;;23.63;12.33;;;14.70;99.90;;;;;;4996779;28;20453;-57
2021/07/22 03:06:31;;;;;;;18.03;11.80;;;14.70;99.90;;;;;;5010170;28;20412;-57
2021/07/22 03:08:59;;;;;;;26.00;11.73;;;14.70;99.90;;;;;;5006727;28;20188;-58
2021/07/22 03:11:34;;;;;;;20.80;11.90;;;14.70;99.90;;;;;;5005551;28;20728;-58
2021/07/22 03:14:01;;;;;;;20.50;13.50;;;14.60;99.90;;;;;;5007633;28;20412;-58
2021/07/22 03:16:32;;;;;;;21.17;12.03;;;14.60;99.90;;;;;;5002735;28;20566;-58
2021/07/22 03:18:57;;;;;;;19.07;12.00;;;14.60;99.90;;;;;;5009245;28;20443;-58
2021/07/22 03:21:23;;;;;;;21.30;11.90;;;14.50;99.90;;;;;;5001327;28;21067;-57
2021/07/22 03:23:49;;;;;;;20.70;11.50;;;14.50;99.90;;;;;;5009630;28;20180;-58
2021/07/22 03:26:20;;;;;;;18.70;11.20;;;14.50;99.90;;;;;;5012530;28;20238;-58
2021/07/22 03:28:48;;;;;;;20.03;11.50;;;14.50;99.90;;;;;;5013834;28;20263;-59
2021/07/22 03:31:14;;;;;;;21.90;12.00;;;14.40;99.90;;;;;;5013091;28;20467;-62
2021/07/22 03:33:40;;;;;;;18.03;11.30;;;14.50;99.90;;;;;;5012961;28;20435;-57
2021/07/22 03:36:05;;;;;;;19.37;11.93;;;14.50;99.90;;;;;;5012882;28;20180;-57
2021/07/22 03:38:32;;;;;;;23.40;13.23;;;14.40;99.90;;;;;;5013244;28;20200;-58
2021/07/22 03:40:57;;;;;;;23.10;12.80;;;14.40;99.90;;;;;;5011837;28;20241;-58
2021/07/22 03:43:23;;;;;;;17.40;11.50;;;14.40;99.90;;;;;;5011343;28;20442;-58
2021/07/22 03:45:59;;;;;;;20.20;12.50;;;14.40;99.90;;;;;;5012306;28;20176;-58
2021/07/22 03:48:30;;;;;;;23.80;12.60;;;14.40;99.90;;;;;;5002992;28;20256;-58
2021/07/22 03:50:56;;;;;;;21.53;12.53;;;14.30;99.90;;;;;;5006297;28;20439;-57
2021/07/22 03:53:22;;;;;;;17.60;11.83;;;14.30;99.90;;;;;;5007412;28;20428;-57
2021/07/22 03:55:49;;;;;;;16.43;11.07;;;14.30;99.90;;;;;;5018044;28;20326;-57
2021/07/22 03:58:18;;;;;;;16.30;10.93;;;14.30;99.90;;;;;;5010017;28;20204;-60
2021/07/22 04:00:43;;;;;;;20.27;12.00;;;14.30;99.90;;;;;;5008535;28;20456;-57
2021/07/22 04:03:09;;;;;;;23.40;13.03;;;14.30;99.90;;;;;;5010734;28;20445;-57
2021/07/22 04:05:35;;;;;;;18.00;11.23;;;14.30;99.90;;;;;;5010034;28;20181;-56
2021/07/22 04:08:00;;;;;;;31.27;13.07;;;14.30;99.90;;;;;;5020785;28;20708;-58
2021/07/22 04:10:28;;;;;;;19.27;12.70;;;14.30;99.90;;;;;;5006781;28;20259;-56
2021/07/22 04:13:01;;;;;;;24.33;11.70;;;14.20;99.90;;;;;;5001856;28;20181;-55
2021/07/22 04:15:29;;;;;;;17.30;11.57;;;14.30;99.90;;;;;;5003255;28;20423;-55
2021/07/22 04:17:55;;;;;;;20.63;12.13;;;14.20;99.90;;;;;;5008253;28;20517;-57
2021/07/22 04:20:23;;;;;;;21.93;11.77;;;14.10;99.90;;;;;;5011490;28;20436;-57
2021/07/22 04:22:50;;;;;;;20.30;11.70;;;14.20;99.90;;;;;;5012094;28;20913;-58
2021/07/22 04:25:15;;;;;;;17.93;11.10;;;14.10;99.90;;;;;;5003835;28;20442;-57
2021/07/22 04:27:41;;;;;;;18.17;11.13;;;14.10;99.90;;;;;;4999083;28;20436;-56
2021/07/22 04:30:09;;;;;;;22.53;11.47;;;14.10;99.90;;;;;;5005201;28;20220;-56
2021/07/22 04:32:35;;;;;;;19.67;11.80;;;14.10;99.90;;;;;;5007046;28;20535;-57
2021/07/22 04:35:03;;;;;;;18.60;12.40;;;14.10;99.90;;;;;;5008056;28;20416;-57
2021/07/22 04:37:29;;;;;;;17.33;11.07;;;14.20;99.90;;;;;;5008970;28;20494;-58
2021/07/22 04:39:55;;;;;;;22.50;12.17;;;14.10;99.90;;;;;;5002452;28;20486;-58
2021/07/22 04:42:20;;;;;;;18.37;11.83;;;14.20;99.90;;;;;;5006201;28;20175;-55
2021/07/22 04:44:46;;;;;;;26.17;13.20;;;14.20;99.90;;;;;;5010205;28;20176;-56
2021/07/22 04:47:11;;;;;;;21.97;12.50;;;14.20;99.90;;;;;;5006377;28;20641;-58
2021/07/22 04:49:37;;;;;;;18.60;12.73;;;14.30;99.90;;;;;;5009442;28;20254;-58
2021/07/22 04:52:03;;;;;;;18.30;11.33;;;14.30;99.90;;;;;;5005573;28;20561;-56
2021/07/22 04:54:28;;;;;;;19.80;11.40;;;14.40;99.90;;;;;;5005399;28;20199;-57
2021/07/22 04:56:54;;;;;;;22.73;11.70;;;14.40;99.90;;;;;;5006228;28;20291;-56
2021/07/22 04:59:20;;;;;;;22.20;13.90;;;14.50;99.90;;;;;;5009175;28;20216;-58
2021/07/22 05:01:45;;;;;;;24.67;13.50;;;14.50;99.90;;;;;;5004971;28;21059;-59
2021/07/22 05:04:17;;;;;;;23.37;11.90;;;14.60;99.90;;;;;;5001548;28;20242;-58
2021/07/22 05:06:44;;;;;;;20.17;12.20;;;14.60;99.90;;;;;;5006723;28;20304;-58
2021/07/22 05:09:10;;;;;;;16.77;11.13;;;14.70;99.90;;;;;;5009043;28;20431;-56
2021/07/22 05:11:35;;;;;;;25.60;12.27;;;14.70;99.90;;;;;;5005813;28;20477;-57
2021/07/22 05:14:01;;;;;;;20.90;12.03;;;14.80;99.90;;;;;;5005156;28;20431;-58
2021/07/22 05:16:27;;;;;;;18.43;11.17;;;14.80;99.90;;;;;;4996376;28;20521;-57
2021/07/22 05:18:52;;;;;;;19.70;11.50;;;14.90;99.90;;;;;;4997050;28;20235;-58
2021/07/22 05:21:19;;;;;;;18.23;11.20;;;14.90;99.90;;;;;;5006962;28;20179;-57
2021/07/22 05:23:45;;;;;;;23.30;13.27;;;15.00;99.90;;;;;;5008798;28;20169;-57
2021/07/22 05:26:11;;;;;;;24.07;12.57;;;15.10;99.90;;;;;;5009704;28;20434;-58
2021/07/22 05:28:37;;;;;;;19.93;12.20;;;15.20;99.90;;;;;;5009476;28;20494;-58
2021/07/22 05:31:10;;;;;;;21.60;12.60;;;15.20;99.90;;;;;;5010612;28;20677;-57
2021/07/22 05:33:37;;;;;;;26.47;14.23;;;15.30;99.90;;;;;;5010400;28;20495;-57
2021/07/22 05:36:05;;;;;;;24.60;12.73;;;15.30;99.90;;;;;;5009026;28;20496;-57
2021/07/22 05:38:32;;;;;;;27.97;13.13;;;15.40;99.90;;;;;;5022199;28;20835;-55
2021/07/22 05:41:09;;;;;;;25.90;13.17;;;15.40;99.90;;;;;;4999420;28;20445;-58
2021/07/22 05:43:35;;;;;;;23.13;13.67;;;15.50;99.90;;;;;;5008825;28;20646;-57
2021/07/22 05:46:01;;;;;;;24.23;14.37;;;15.50;99.90;;;;;;5008973;28;20502;-57
2021/07/22 05:48:26;;;;;;;27.83;13.10;;;15.60;99.90;;;;;;5009512;28;20181;-57
2021/07/22 05:50:52;;;;;;;24.60;13.20;;;15.70;99.90;;;;;;5007955;28;20197;-55
2021/07/22 05:53:19;;;;;;;25.77;12.70;;;15.70;99.90;;;;;;5009529;28;20208;-58
2021/07/22 05:55:44;;;;;;;33.83;14.50;;;15.80;99.90;;;;;;5007579;28;20184;-56
2021/07/22 05:58:11;;;;;;;27.00;14.40;;;15.80;99.90;;;;;;5009881;28;20459;-57
2021/07/22 06:00:37;;;;;;;25.33;13.80;;;15.90;99.90;;;;;;5009230;28;20212;-58
2021/07/22 06:03:06;;;;;;;26.50;13.53;;;16.00;99.90;;;;;;5005268;28;20478;-57
2021/07/22 06:05:34;;;;;;;26.13;13.77;;;16.00;99.90;;;;;;4994231;28;20469;-58
2021/07/22 06:08:03;;;;;;;27.93;14.07;;;16.10;99.90;;;;;;5007442;28;20454;-58
2021/07/22 06:10:29;;;;;;;28.93;14.27;;;16.20;99.90;;;;;;5008871;28;20451;-57
2021/07/22 06:12:56;;;;;;;38.40;14.03;;;16.30;99.90;;;;;;5000636;28;21014;-57
2021/07/22 06:15:22;;;;;;;30.27;13.90;;;16.40;99.90;;;;;;5006287;28;20431;-58
2021/07/22 06:17:47;;;;;;;28.70;13.47;;;16.50;99.90;;;;;;5009524;28;20454;-57
2021/07/22 06:20:13;;;;;;;23.13;13.67;;;16.60;99.90;;;;;;5007370;28;20554;-58
2021/07/22 06:22:39;;;;;;;24.30;15.60;;;16.70;99.90;;;;;;5008724;28;20184;-57
2021/07/22 06:25:06;;;;;;;29.70;16.37;;;16.70;99.90;;;;;;5009867;28;20171;-58
2021/07/22 06:27:32;;;;;;;29.90;13.23;;;16.80;99.90;;;;;;5009427;28;20176;-57
2021/07/22 06:30:03;;;;;;;26.70;14.37;;;16.90;99.90;;;;;;5003887;28;20849;-57
2021/07/22 06:32:29;;;;;;;26.63;14.63;;;17.00;99.90;;;;;;5004739;28;20481;-58
2021/07/22 06:34:55;;;;;;;22.90;14.23;;;17.10;99.90;;;;;;5007676;28;20972;-56
2021/07/22 06:37:20;;;;;;;28.70;16.33;;;17.10;99.90;;;;;;5007027;28;20310;-57
2021/07/22 06:39:46;;;;;;;28.10;15.67;;;17.30;99.90;;;;;;5003330;28;20216;-57
2021/07/22 06:42:12;;;;;;;27.10;14.97;;;17.40;99.90;;;;;;5006134;28;20177;-57
2021/07/22 06:44:37;;;;;;;27.27;15.43;;;17.50;99.90;;;;;;5003047;28;20197;-56
2021/07/22 06:47:03;;;;;;;27.77;16.13;;;17.50;99.90;;;;;;5001189;28;20189;-58
2021/07/22 06:49:29;;;;;;;31.70;16.20;;;17.60;99.90;;;;;;5002846;28;20200;-57
2021/07/22 06:51:54;;;;;;;24.73;15.07;;;17.70;99.90;;;;;;5005922;28;20834;-56
2021/07/22 06:54:21;;;;;;;24.47;15.40;;;17.80;99.90;;;;;;5007617;28;20183;-58
2021/07/22 06:56:47;;;;;;;29.10;15.50;;;17.90;99.90;;;;;;5003442;28;20683;-56
2021/07/22 06:59:13;;;;;;;26.70;16.53;;;18.00;99.90;;;;;;5005746;28;21161;-56
2021/07/22 07:01:39;;;;;;;21.43;13.50;;;18.10;96.80;;;;;;4997925;28;20496;-56
2021/07/22 07:04:05;;;;;;;21.87;14.10;;;18.20;97.80;;;;;;5004634;28;20443;-56
2021/07/22 07:06:34;;;;;;;24.80;14.63;;;18.30;97.40;;;;;;5006466;28;20168;-55
2021/07/22 07:09:00;;;;;;;22.80;14.00;;;18.50;95.90;;;;;;5011888;28;21023;-56
2021/07/22 07:11:26;;;;;;;21.13;13.73;;;18.60;94.90;;;;;;5011407;28;20980;-56
2021/07/22 07:13:52;;;;;;;29.50;15.60;;;18.70;94.00;;;;;;5007483;28;20423;-58
2021/07/22 07:16:17;;;;;;;21.90;14.93;;;18.70;93.60;;;;;;5010787;28;20542;-56
2021/07/22 07:18:43;;;;;;;24.40;13.60;;;18.90;93.10;;;;;;5012509;28;20242;-56
2021/07/22 07:21:09;;;;;;;26.00;13.30;;;19.00;92.80;;;;;;5013029;28;20234;-57
2021/07/22 07:23:35;;;;;;;24.10;13.77;;;19.10;92.90;;;;;;5012435;28;20212;-55
2021/07/22 07:26:04;;;;;;;22.23;13.27;;;19.20;92.50;;;;;;5012955;28;20172;-58
2021/07/22 07:28:29;;;;;;;23.67;12.27;;;19.40;92.20;;;;;;5007514;28;20448;-56
2021/07/22 07:30:55;;;;;;;18.37;12.00;;;19.60;91.30;;;;;;4994940;28;20467;-57
2021/07/22 07:33:21;;;;;;;18.47;12.40;;;19.70;90.50;;;;;;5011237;28;20195;-55
2021/07/22 07:35:47;;;;;;;18.20;12.53;;;19.80;87.40;;;;;;5018382;28;20177;-57
2021/07/22 07:38:13;;;;;;;18.70;11.20;;;19.90;85.00;;;;;;4998076;28;20205;-57
2021/07/22 07:40:38;;;;;;;18.30;11.67;;;20.10;86.10;;;;;;5001633;28;20990;-57
2021/07/22 07:43:04;;;;;;;19.80;11.47;;;20.20;85.80;;;;;;5003867;28;21959;-58
2021/07/22 07:45:30;;;;;;;17.30;11.30;;;20.30;85.00;;;;;;5010931;28;20173;-57
2021/07/22 07:47:56;;;;;;;20.67;11.47;;;20.30;81.80;;;;;;5008838;28;20248;-57
2021/07/22 07:50:22;;;;;;;20.83;11.43;;;20.40;81.80;;;;;;4998529;28;20243;-57
2021/07/22 07:52:48;;;;;;;16.93;11.67;;;20.40;84.50;;;;;;5011048;28;20185;-58
2021/07/22 07:55:15;;;;;;;17.00;10.97;;;20.60;84.80;;;;;;5010821;28;20184;-57
2021/07/22 07:57:41;;;;;;;19.33;11.20;;;20.60;85.70;;;;;;5012283;28;20537;-57
2021/07/22 08:00:08;;;;;;;16.87;11.37;;;20.70;80.90;;;;;;5011291;28;20525;-57
2021/07/22 08:02:34;;;;;;;19.27;11.63;;;20.70;79.50;;;;;;5009595;28;20177;-56
2021/07/22 08:05:00;;;;;;;17.33;10.97;;;20.80;80.40;;;;;;5010437;28;20835;-57
2021/07/22 08:07:26;;;;;;;19.67;12.57;;;20.90;81.50;;;;;;5011689;28;20185;-58
2021/07/22 08:09:53;;;;;;;21.10;11.70;;;21.00;82.50;;;;;;5011494;28;20814;-55
2021/07/22 08:12:19;;;;;;;21.60;11.97;;;21.10;81.10;;;;;;5011819;28;20577;-57
2021/07/22 08:14:46;;;;;;;22.07;12.07;;;21.20;77.50;;;;;;5012948;28;20496;-57
2021/07/22 08:17:16;;;;;;;19.60;12.17;;;21.20;77.80;;;;;;5009448;28;20813;-57
2021/07/22 08:19:42;;;;;;;21.23;12.80;;;21.30;80.20;;;;;;5008063;28;21128;-59
2021/07/22 08:22:11;;;;;;;20.00;11.10;;;21.40;81.00;;;;;;5009380;28;20427;-57
2021/07/22 08:24:39;;;;;;;21.63;12.20;;;21.50;80.30;;;;;;5009178;28;20223;-56
2021/07/22 08:27:05;;;;;;;20.73;12.37;;;21.50;78.80;;;;;;5008333;28;20465;-57
2021/07/22 08:29:31;;;;;;;21.70;13.07;;;21.60;76.90;;;;;;5010307;28;20455;-57
2021/07/22 08:31:56;;;;;;;24.53;11.77;;;21.70;76.70;;;;;;5010563;28;20545;-57
2021/07/22 08:34:23;;;;;;;21.53;11.73;;;21.80;78.40;;;;;;5004006;28;20256;-57
2021/07/22 08:36:48;;;;;;;20.77;13.17;;;21.90;78.00;;;;;;5009576;28;20188;-57
2021/07/22 08:39:14;;;;;;;18.60;11.90;;;22.00;76.90;;;;;;5000630;28;20458;-57
2021/07/22 08:41:44;;;;;;;18.17;11.73;;;22.10;76.40;;;;;;5002585;28;20659;-57
2021/07/22 08:44:11;;;;;;;19.50;11.80;;;22.20;75.20;;;;;;5004914;28;20443;-57
2021/07/22 08:46:45;;;;;;;21.67;12.13;;;22.30;74.20;;;;;;5008537;28;20423;-58
2021/07/22 08:49:11;;;;;;;26.33;12.87;;;22.40;73.80;;;;;;4998259;28;20945;-57
2021/07/22 08:51:37;;;;;;;18.70;11.33;;;22.50;74.00;;;;;;5008239;28;20419;-55
2021/07/22 08:54:03;;;;;;;19.57;12.50;;;22.60;73.00;;;;;;5005092;28;20950;-56
2021/07/22 08:56:30;;;;;;;24.17;13.30;;;22.60;69.20;;;;;;5010782;28;20705;-57
2021/07/22 08:58:57;;;;;;;20.30;12.97;;;22.60;66.60;;;;;;5005582;28;20200;-56
2021/07/22 09:01:26;;;;;;;20.80;12.43;;;22.50;64.60;;;;;;5003033;28;20467;-55
2021/07/22 09:03:52;;;;;;;22.70;13.60;;;22.50;64.50;;;;;;5001287;28;20784;-57
2021/07/22 09:06:19;;;;;;;23.50;12.70;;;22.60;66.60;;;;;;4997816;28;20420;-57
2021/07/22 09:08:45;;;;;;;19.83;12.20;;;22.70;69.10;;;;;;5009200;28;20502;-56
2021/07/22 09:11:12;;;;;;;21.13;12.63;;;22.90;69.40;;;;;;5009829;28;20847;-56
2021/07/22 09:13:38;;;;;;;19.70;13.03;;;23.10;69.20;;;;;;5001938;28;20489;-56
2021/07/22 09:16:04;;;;;;;18.23;12.20;;;23.30;69.80;;;;;;5008190;28;20427;-56
2021/07/22 09:18:35;;;;;;;22.20;12.53;;;23.40;68.50;;;;;;5009940;28;21034;-57
2021/07/22 09:21:18;;;;;;;20.40;11.40;;;23.60;66.70;;;;;;5008809;28;20463;-56
2021/07/22 09:24:04;;;;;;;22.90;12.90;;;23.70;65.80;;;;;;5005682;28;20938;-57
2021/07/22 09:26:32;;;;;;;19.40;12.33;;;23.90;64.60;;;;;;5002835;28;20522;-57
2021/07/22 09:29:03;;;;;;;19.00;12.80;;;23.90;59.70;;;;;;5009577;28;20455;-57
2021/07/22 09:31:29;;;;;;;22.43;12.20;;;23.90;60.30;;;;;;5009603;28;20530;-56
2021/07/22 09:33:55;;;;;;;19.33;12.47;;;23.90;58.50;;;;;;5009979;28;22457;-56
2021/07/22 09:36:20;;;;;;;21.63;12.27;;;24.00;57.80;;;;;;5010230;28;20717;-57
2021/07/22 09:38:46;;;;;;;20.80;13.27;;;24.10;60.10;;;;;;5006948;28;20212;-56
2021/07/22 09:41:19;;;;;;;18.07;11.80;;;24.30;59.80;;;;;;5006830;28;20193;-58
2021/07/22 09:43:45;;;;;;;22.93;12.60;;;24.40;57.60;;;;;;5009839;28;20411;-56
2021/07/22 09:46:11;;;;;;;18.50;12.00;;;24.60;58.90;;;;;;5007820;28;21009;-56
2021/07/22 09:48:37;;;;;;;25.60;13.17;;;24.80;57.40;;;;;;5006873;28;20169;-57
2021/07/22 09:51:03;;;;;;;20.73;13.03;;;25.00;56.00;;;;;;5003770;28;20564;-57
2021/07/22 09:53:29;;;;;;;20.10;13.17;;;25.10;56.00;;;;;;5009198;28;20427;-58
2021/07/22 09:55:56;;;;;;;16.90;12.37;;;25.30;56.20;;;;;;5009345;28;20168;-57
2021/07/22 09:58:22;;;;;;;19.80;12.30;;;25.40;56.40;;;;;;5009264;28;20253;-57
2021/07/22 10:00:50;;;;;;;20.10;13.00;;;25.50;54.80;;;;;;5008935;28;20459;-63
2021/07/22 10:03:20;;;;;;;25.30;13.33;;;25.60;54.40;;;;;;5007862;28;20624;-57
2021/07/22 10:05:51;;;;;;;22.03;14.33;;;25.70;53.70;;;;;;5000459;28;20439;-57
2021/07/22 10:08:18;;;;;;;20.93;13.03;;;25.90;53.00;;;;;;5004192;28;20443;-57
2021/07/22 10:10:51;;;;;;;23.70;13.53;;;26.00;52.70;;;;;;5008432;28;20504;-57
2021/07/22 10:13:25;;;;;;;23.33;14.23;;;26.10;53.10;;;;;;5005476;28;20439;-56
2021/07/22 10:15:54;;;;;;;21.57;12.30;;;26.20;51.80;;;;;;5006915;28;20423;-56
2021/07/22 10:18:24;;;;;;;27.23;14.27;;;26.20;52.40;;;;;;5004077;28;20454;-57
2021/07/22 10:21:00;;;;;;;20.47;13.33;;;26.30;51.90;;;;;;5002283;28;20506;-59
2021/07/22 10:23:30;;;;;;;21.23;12.73;;;26.50;52.00;;;;;;5004443;28;20819;-60
2021/07/22 10:26:15;;;;;;;19.87;12.77;;;26.70;51.80;;;;;;4999587;28;20662;-57
2021/07/22 10:28:50;;;;;;;20.67;13.70;;;26.80;51.50;;;;;;4998184;28;20424;-57
2021/07/22 10:31:19;;;;;;;18.73;13.50;;;27.00;50.80;;;;;;4999271;28;20466;-58
2021/07/22 10:33:49;;;;;;;21.00;13.60;;;27.00;51.80;;;;;;5015457;28;20428;-57
2021/07/22 10:36:19;;;;;;;19.60;12.37;;;27.10;51.40;;;;;;4972314;28;20538;-58
2021/07/22 10:38:47;;;;;;;19.43;12.97;;;27.20;50.50;;;;;;5002145;28;20470;-58
2021/07/22 10:41:41;;;;;;;17.80;12.40;;;27.20;50.50;;;;;;5004790;28;20470;-59
2021/07/22 10:44:18;;;;;;;20.27;13.47;;;27.00;50.80;;;;;;5005674;28;20423;-58
2021/07/22 10:47:05;;;;;;;17.87;12.20;;;26.70;50.10;;;;;;5007362;28;20466;-57
2021/07/22 10:49:43;;;;;;;20.73;13.73;;;26.40;51.00;;;;;;5004885;28;20501;-57
2021/07/22 10:52:15;;;;;;;22.33;12.60;;;26.10;51.80;;;;;;4994044;28;20423;-58
2021/07/22 10:54:40;;;;;;;22.47;13.17;;;25.80;51.50;;;;;;4998618;28;20468;-57
2021/07/22 10:57:06;;;;;;;20.97;13.33;;;25.60;52.40;;;;;;5003189;28;20540;-57
2021/07/22 10:59:57;;;;;;;17.80;11.87;;;25.50;53.60;;;;;;4999067;28;20223;-58
2021/07/22 11:03:04;;;;;;;22.83;12.17;;;25.40;54.50;;;;;;4999560;28;20419;-58
2021/07/22 11:05:41;;;;;;;18.70;13.23;;;25.40;53.80;;;;;;4975067;28;20438;-58
2021/07/22 11:08:25;;;;;;;19.83;13.30;;;25.40;54.30;;;;;;4999556;28;20426;-60
2021/07/22 11:11:03;;;;;;;25.00;14.40;;;25.60;56.70;;;;;;5006667;28;20447;-59
2021/07/22 11:13:46;;;;;;;17.60;13.10;;;25.80;55.00;;;;;;5007192;28;20817;-58
2021/07/22 11:16:22;;;;;;;19.10;13.40;;;26.10;53.10;;;;;;5001569;28;20430;-60
2021/07/22 11:18:57;;;;;;;20.50;13.57;;;26.40;51.80;;;;;;5004995;28;20844;-57
2021/07/22 11:22:10;;;;;;;17.67;12.50;;;26.60;52.60;;;;;;5005122;28;20467;-59
2021/07/22 11:24:35;;;;;;;17.23;12.03;;;26.90;52.90;;;;;;4997674;28;20821;-59
2021/07/22 11:27:01;;;;;;;20.43;12.50;;;27.10;51.40;;;;;;5007559;28;20955;-61
2021/07/22 11:29:30;;;;;;;17.67;12.50;;;27.40;49.40;;;;;;5006808;28;20676;-58
2021/07/22 11:32:02;;;;;;;17.20;12.40;;;27.60;48.40;;;;;;5003343;28;20443;-57
2021/07/22 11:34:39;;;;;;;17.30;11.83;;;27.60;46.90;;;;;;5000099;28;20422;-59
2021/07/22 11:37:16;;;;;;;16.43;11.60;;;27.70;48.00;;;;;;5002001;28;20430;-57
2021/07/22 11:39:43;;;;;;;21.43;11.77;;;27.90;48.20;;;;;;5000855;28;20447;-57
2021/07/22 11:42:13;;;;;;;21.77;12.10;;;28.00;47.20;;;;;;5007062;28;20266;-57
2021/07/22 11:44:40;;;;;;;19.57;12.60;;;28.20;47.80;;;;;;5007551;28;20529;-58
2021/07/22 11:47:13;;;;;;;21.30;12.43;;;28.30;47.10;;;;;;5009711;28;20216;-57
2021/07/22 11:49:50;;;;;;;18.37;11.93;;;28.40;47.90;;;;;;5006829;28;20441;-57
2021/07/22 11:52:16;;;;;;;16.67;11.83;;;28.50;46.70;;;;;;5006505;28;20649;-63
2021/07/22 11:54:42;;;;;;;16.70;12.10;;;28.70;47.00;;;;;;5004755;28;20195;-57
2021/07/22 11:57:11;;;;;;;22.23;12.43;;;28.80;47.70;;;;;;5007200;28;20721;-57
2021/07/22 11:59:37;;;;;;;18.50;12.77;;;28.90;45.80;;;;;;5005896;28;20192;-58
2021/07/22 12:02:08;;;;;;;18.80;11.90;;;29.10;46.00;;;;;;5021552;28;20588;-58
2021/07/22 12:04:35;;;;;;;20.10;12.80;;;29.00;46.30;;;;;;5010657;28;20176;-58
2021/07/22 12:07:08;;;;;;;17.13;11.70;;;28.70;45.50;;;;;;5007237;28;20183;-57
2021/07/22 12:09:55;;;;;;;19.23;12.10;;;28.80;46.20;;;;;;5008176;28;20184;-60
2021/07/22 12:12:32;;;;;;;17.57;11.30;;;29.00;46.30;;;;;;5006364;28;20172;-58
2021/07/22 12:15:14;;;;;;;15.73;10.40;;;29.30;45.30;;;;;;5008403;28;20255;-59
2021/07/22 12:17:41;;;;;;;16.57;11.47;;;29.50;44.80;;;;;;5005535;28;20198;-57
2021/07/22 12:20:08;;;;;;;18.20;11.30;;;29.70;43.10;;;;;;5008854;28;20192;-59
2021/07/22 12:22:42;;;;;;;18.27;11.30;;;29.90;43.10;;;;;;5009047;28;20245;-57
2021/07/22 12:25:07;;;;;;;24.75;11.60;;;30.00;43.20;;;;;;5012777;28;20193;-58
2021/07/22 12:27:49;;;;;;;15.60;10.68;;;30.20;44.60;;;;;;5010328;28;20640;-58
2021/07/22 12:30:26;;;;;;;16.63;11.38;;;30.40;43.50;;;;;;5006364;28;20231;-56
2021/07/22 12:33:06;;;;;;;16.65;10.93;;;30.40;39.60;;;;;;5009005;28;20259;-57
2021/07/22 12:35:44;;;;;;;15.40;11.15;;;30.30;40.70;;;;;;5010751;28;20263;-57